createdAt,value
2023-01-17T00:00:29.888Z,989.12
2023-01-17T00:10:30.178Z,989.16
2023-01-17T00:20:30.225Z,989.09
2023-01-17T00:30:31.509Z,988.93
2023-01-17T00:40:30.595Z,989.01
2023-01-17T00:50:31.756Z,989.03
2023-01-17T01:00:30.829Z,989.03
2023-01-17T01:10:30.988Z,989.22
2023-01-17T01:20:31.015Z,989.26
2023-01-17T01:30:31.364Z,989.35
2023-01-17T01:40:31.395Z,989.20
2023-01-17T01:50:31.728Z,989.28
2023-01-17T02:00:31.772Z,989.25
2023-01-17T02:10:32.102Z,989.19
2023-01-17T02:20:32.137Z,989.12
2023-01-17T02:30:32.473Z,989.01
2023-01-17T02:40:32.533Z,988.93
2023-01-17T02:50:32.830Z,988.84
2023-01-17T03:00:32.876Z,988.76
2023-01-17T03:10:34.124Z,988.72
2023-01-17T03:20:40.140Z,988.74
2023-01-17T03:30:33.575Z,988.67
2023-01-17T03:40:38.155Z,988.74
2023-01-17T03:50:34.021Z,988.86
2023-01-17T04:00:34.328Z,988.74
2023-01-17T04:10:34.371Z,988.61
2023-01-17T04:20:34.701Z,988.46
2023-01-17T04:30:34.782Z,988.31
2023-01-17T04:40:34.982Z,988.24
2023-01-17T04:50:35.014Z,988.37
2023-01-17T05:00:35.336Z,988.58
2023-01-17T05:10:35.386Z,988.37
2023-01-17T05:20:36.652Z,988.11
2023-01-17T05:30:35.718Z,988.15
2023-01-17T05:40:35.971Z,988.03
2023-01-17T05:50:36.213Z,987.89
2023-01-17T06:00:36.555Z,987.69
2023-01-17T06:10:36.595Z,987.69
2023-01-17T06:20:36.947Z,987.68
2023-01-17T06:30:37.005Z,987.69
2023-01-17T06:40:37.296Z,987.90
2023-01-17T06:50:37.364Z,987.76
2023-01-17T07:00:40.505Z,987.54
2023-01-17T07:10:37.856Z,987.28
2023-01-17T07:20:38.136Z,987.26
2023-01-17T07:30:38.219Z,987.19
2023-01-17T07:40:42.073Z,987.20
2023-01-17T07:50:38.567Z,987.24
2023-01-17T08:00:38.737Z,987.23
2023-01-17T08:10:38.839Z,987.00
2023-01-17T08:20:39.159Z,986.80
2023-01-17T08:30:39.262Z,986.51
2023-01-17T08:40:39.517Z,986.37
2023-01-17T08:50:39.757Z,986.10
2023-01-17T09:00:40.156Z,985.86
2023-01-17T09:10:40.249Z,985.52
2023-01-17T09:20:40.658Z,985.49
2023-01-17T09:30:40.732Z,985.38
2023-01-17T09:40:40.853Z,985.47
2023-01-17T09:50:40.881Z,985.45
2023-01-17T10:00:41.207Z,985.30
2023-01-17T10:10:41.235Z,985.16
2023-01-17T10:20:41.587Z,985.15
2023-01-17T10:30:41.669Z,985.07
2023-01-17T10:40:41.740Z,984.84
2023-01-17T10:50:41.976Z,984.65
2023-01-17T11:00:46.303Z,984.49
2023-01-17T11:10:42.427Z,984.22
2023-01-17T11:20:45.225Z,984.08
2023-01-17T11:30:42.875Z,984.10
2023-01-17T11:40:43.153Z,983.83
2023-01-17T11:50:43.406Z,983.49
2023-01-17T12:00:43.742Z,983.27
2023-01-17T12:10:43.772Z,982.83
2023-01-17T12:20:44.114Z,982.85
2023-01-17T12:30:44.152Z,982.76
2023-01-17T12:40:44.486Z,982.32
2023-01-17T12:50:44.515Z,981.94
2023-01-17T13:00:44.901Z,981.72
2023-01-17T13:10:44.962Z,981.60
2023-01-17T13:20:45.215Z,981.46
2023-01-17T13:30:45.444Z,981.26
2023-01-17T13:40:45.688Z,981.26
2023-01-17T13:50:45.913Z,981.24
2023-01-17T14:00:46.312Z,981.38
2023-01-17T14:10:46.269Z,981.41
2023-01-17T14:20:46.542Z,981.52
2023-01-17T14:30:46.871Z,981.42
2023-01-17T14:40:47.006Z,981.35
2023-01-17T14:50:47.051Z,981.47
2023-01-17T15:00:47.419Z,981.72
2023-01-17T15:10:47.509Z,981.96
2023-01-17T15:20:47.844Z,981.83
2023-01-17T15:30:47.963Z,981.62
2023-01-17T15:40:48.010Z,981.85
2023-01-17T15:50:48.041Z,982.21
2023-01-17T16:00:48.599Z,982.31
2023-01-17T16:10:48.467Z,982.29
2023-01-17T16:20:48.772Z,982.28
2023-01-17T16:30:48.855Z,982.32
2023-01-17T16:40:49.042Z,982.41
2023-01-17T16:50:49.071Z,982.67
2023-01-17T17:00:49.435Z,982.89
2023-01-17T17:10:49.506Z,983.11
2023-01-17T17:20:49.760Z,983.61
2023-01-17T17:30:50.019Z,983.76
2023-01-17T17:40:50.332Z,983.94
2023-01-17T17:50:50.381Z,984.03
2023-01-17T18:00:50.775Z,984.10
2023-01-17T18:10:50.868Z,984.08
2023-01-17T18:20:51.102Z,984.18
2023-01-17T18:30:51.431Z,984.26
2023-01-17T18:40:51.477Z,984.33
2023-01-17T18:50:51.535Z,984.29
2023-01-17T19:00:52.168Z,984.23
2023-01-17T19:10:51.883Z,984.12
2023-01-17T19:20:52.417Z,984.25
2023-01-17T19:30:52.546Z,984.42
2023-01-17T19:40:53.792Z,984.54
2023-01-17T19:50:53.452Z,984.50
2023-01-17T20:00:53.213Z,984.60
2023-01-17T20:10:53.243Z,984.62
2023-01-17T20:20:57.385Z,984.70
2023-01-17T20:30:53.461Z,984.84
2023-01-17T20:40:53.629Z,984.97
2023-01-17T20:50:53.825Z,984.86
2023-01-17T21:00:53.938Z,984.90
2023-01-17T21:10:54.750Z,985.08
2023-01-17T21:20:54.298Z,985.19
2023-01-17T21:30:54.388Z,984.96
2023-01-17T21:40:54.477Z,985.07
2023-01-17T21:50:54.518Z,984.98
2023-01-17T22:00:54.847Z,985.05
2023-01-17T22:10:54.939Z,985.08
2023-01-17T22:20:55.001Z,985.21
2023-01-17T22:30:55.283Z,985.17
2023-01-17T22:40:58.648Z,985.16
2023-01-17T22:50:55.525Z,984.98
2023-01-17T23:00:55.648Z,984.89
2023-01-17T23:10:55.679Z,984.92
2023-01-17T23:20:56.007Z,985.04
2023-01-17T23:30:56.072Z,985.00
2023-01-17T23:40:56.169Z,985.13
2023-01-17T23:50:56.231Z,985.08
